sensor_id;sensor_type;location;lat;lon;timestamp;temperature;humidity
5723;DHT22;2886;49.722;8.612;2023-06-22T00:00:54;24.60;84.30
5723;DHT22;2886;49.722;8.612;2023-06-22T00:03:22;24.50;84.10
5723;DHT22;2886;49.722;8.612;2023-06-22T00:05:49;24.50;84.90
5723;DHT22;2886;49.722;8.612;2023-06-22T00:08:16;24.50;85.30
5723;DHT22;2886;49.722;8.612;2023-06-22T00:10:42;24.40;86.10
5723;DHT22;2886;49.722;8.612;2023-06-22T00:13:09;24.40;88.20
5723;DHT22;2886;49.722;8.612;2023-06-22T00:15:36;24.30;90.70
5723;DHT22;2886;49.722;8.612;2023-06-22T00:18:02;24.10;91.50
5723;DHT22;2886;49.722;8.612;2023-06-22T00:20:28;24.00;92.90
5723;DHT22;2886;49.722;8.612;2023-06-22T00:22:54;23.90;93.60
5723;DHT22;2886;49.722;8.612;2023-06-22T00:25:20;23.70;94.40
5723;DHT22;2886;49.722;8.612;2023-06-22T00:27:46;23.60;95.20
5723;DHT22;2886;49.722;8.612;2023-06-22T00:30:12;23.50;96.00
5723;DHT22;2886;49.722;8.612;2023-06-22T00:32:37;23.50;96.50
5723;DHT22;2886;49.722;8.612;2023-06-22T00:35:03;23.40;96.80
5723;DHT22;2886;49.722;8.612;2023-06-22T00:37:29;23.30;97.10
5723;DHT22;2886;49.722;8.612;2023-06-22T00:39:55;23.30;97.30
5723;DHT22;2886;49.722;8.612;2023-06-22T00:42:22;23.20;97.50
5723;DHT22;2886;49.722;8.612;2023-06-22T00:44:48;23.20;97.70
5723;DHT22;2886;49.722;8.612;2023-06-22T00:47:16;23.20;97.60
5723;DHT22;2886;49.722;8.612;2023-06-22T00:49:43;23.20;97.80
5723;DHT22;2886;49.722;8.612;2023-06-22T00:52:09;23.20;97.40
5723;DHT22;2886;49.722;8.612;2023-06-22T00:54:41;23.20;97.30
5723;DHT22;2886;49.722;8.612;2023-06-22T00:57:14;23.20;96.70
5723;DHT22;2886;49.722;8.612;2023-06-22T00:59:43;23.30;96.70
5723;DHT22;2886;49.722;8.612;2023-06-22T01:02:09;23.30;96.80
5723;DHT22;2886;49.722;8.612;2023-06-22T01:04:37;23.40;97.00
5723;DHT22;2886;49.722;8.612;2023-06-22T01:07:17;23.40;97.00
5723;DHT22;2886;49.722;8.612;2023-06-22T01:09:59;23.30;97.30
5723;DHT22;2886;49.722;8.612;2023-06-22T01:12:30;23.30;99.90
5723;DHT22;2886;49.722;8.612;2023-06-22T01:15:25;23.10;99.90
5723;DHT22;2886;49.722;8.612;2023-06-22T01:17:53;22.60;99.90
5723;DHT22;2886;49.722;8.612;2023-06-22T01:20:20;22.10;99.90
5723;DHT22;2886;49.722;8.612;2023-06-22T01:23:11;21.70;99.90
5723;DHT22;2886;49.722;8.612;2023-06-22T01:25:47;21.30;99.90
5723;DHT22;2886;49.722;8.612;2023-06-22T01:28:45;21.10;99.90
5723;DHT22;2886;49.722;8.612;2023-06-22T01:31:13;21.00;99.90
5723;DHT22;2886;49.722;8.612;2023-06-22T01:33:43;20.90;99.90
5723;DHT22;2886;49.722;8.612;2023-06-22T01:36:10;20.90;99.90
5723;DHT22;2886;49.722;8.612;2023-06-22T01:38:37;20.90;99.90
5723;DHT22;2886;49.722;8.612;2023-06-22T01:41:04;20.90;99.90
5723;DHT22;2886;49.722;8.612;2023-06-22T01:43:30;21.00;99.90
5723;DHT22;2886;49.722;8.612;2023-06-22T01:46:00;21.00;99.90
5723;DHT22;2886;49.722;8.612;2023-06-22T01:48:26;21.10;99.90
5723;DHT22;2886;49.722;8.612;2023-06-22T01:50:52;21.20;99.90
5723;DHT22;2886;49.722;8.612;2023-06-22T01:53:21;21.10;99.90
5723;DHT22;2886;49.722;8.612;2023-06-22T01:55:47;21.10;99.90
5723;DHT22;2886;49.722;8.612;2023-06-22T01:58:13;21.10;99.90
5723;DHT22;2886;49.722;8.612;2023-06-22T02:00:41;21.10;99.90
5723;DHT22;2886;49.722;8.612;2023-06-22T02:03:16;21.10;99.90
5723;DHT22;2886;49.722;8.612;2023-06-22T02:05:52;21.10;99.90
5723;DHT22;2886;49.722;8.612;2023-06-22T02:08:22;21.20;99.90
5723;DHT22;2886;49.722;8.612;2023-06-22T02:10:49;21.20;99.90
5723;DHT22;2886;49.722;8.612;2023-06-22T02:13:16;21.00;99.90
5723;DHT22;2886;49.722;8.612;2023-06-22T02:15:42;20.90;99.90
5723;DHT22;2886;49.722;8.612;2023-06-22T02:18:09;20.80;99.90
5723;DHT22;2886;49.722;8.612;2023-06-22T02:20:38;20.80;99.90
5723;DHT22;2886;49.722;8.612;2023-06-22T02:23:04;20.90;99.90
5723;DHT22;2886;49.722;8.612;2023-06-22T02:25:30;20.90;99.90
5723;DHT22;2886;49.722;8.612;2023-06-22T02:27:56;20.90;99.90
5723;DHT22;2886;49.722;8.612;2023-06-22T02:30:22;20.90;99.90
5723;DHT22;2886;49.722;8.612;2023-06-22T02:32:48;20.80;99.90
5723;DHT22;2886;49.722;8.612;2023-06-22T02:35:13;20.80;99.90
5723;DHT22;2886;49.722;8.612;2023-06-22T02:37:39;20.70;99.90
5723;DHT22;2886;49.722;8.612;2023-06-22T02:40:07;20.60;99.90
5723;DHT22;2886;49.722;8.612;2023-06-22T02:42:35;20.60;99.90
5723;DHT22;2886;49.722;8.612;2023-06-22T02:45:01;20.60;99.90
5723;DHT22;2886;49.722;8.612;2023-06-22T02:47:27;20.60;99.90
5723;DHT22;2886;49.722;8.612;2023-06-22T02:49:52;20.60;99.90
5723;DHT22;2886;49.722;8.612;2023-06-22T02:52:18;20.60;99.90
5723;DHT22;2886;49.722;8.612;2023-06-22T02:54:44;20.60;99.90
5723;DHT22;2886;49.722;8.612;2023-06-22T02:57:11;20.60;99.90
5723;DHT22;2886;49.722;8.612;2023-06-22T02:59:42;20.60;99.90
5723;DHT22;2886;49.722;8.612;2023-06-22T03:02:08;20.60;99.90
5723;DHT22;2886;49.722;8.612;2023-06-22T03:04:35;20.60;99.90
5723;DHT22;2886;49.722;8.612;2023-06-22T03:07:01;20.50;99.90
5723;DHT22;2886;49.722;8.612;2023-06-22T03:09:28;20.50;99.90
5723;DHT22;2886;49.722;8.612;2023-06-22T03:11:54;20.40;99.90
5723;DHT22;2886;49.722;8.612;2023-06-22T03:14:20;20.40;99.90
5723;DHT22;2886;49.722;8.612;2023-06-22T03:16:45;20.40;99.90
5723;DHT22;2886;49.722;8.612;2023-06-22T03:19:11;20.40;99.90
5723;DHT22;2886;49.722;8.612;2023-06-22T03:21:38;20.40;99.90
5723;DHT22;2886;49.722;8.612;2023-06-22T03:24:07;20.40;99.90
5723;DHT22;2886;49.722;8.612;2023-06-22T03:26:33;20.40;99.90
5723;DHT22;2886;49.722;8.612;2023-06-22T03:28:58;20.40;99.90
5723;DHT22;2886;49.722;8.612;2023-06-22T03:31:24;20.40;99.90
5723;DHT22;2886;49.722;8.612;2023-06-22T03:33:50;20.50;99.90
5723;DHT22;2886;49.722;8.612;2023-06-22T03:36:17;20.50;99.90
5723;DHT22;2886;49.722;8.612;2023-06-22T03:38:47;20.50;99.90
5723;DHT22;2886;49.722;8.612;2023-06-22T03:41:13;20.50;99.90
5723;DHT22;2886;49.722;8.612;2023-06-22T03:43:39;20.50;99.90
5723;DHT22;2886;49.722;8.612;2023-06-22T03:46:05;20.50;99.90
5723;DHT22;2886;49.722;8.612;2023-06-22T03:48:30;20.50;99.90
5723;DHT22;2886;49.722;8.612;2023-06-22T03:50:56;20.50;99.90
5723;DHT22;2886;49.722;8.612;2023-06-22T03:53:22;20.60;99.90
5723;DHT22;2886;49.722;8.612;2023-06-22T03:55:51;20.50;99.90
5723;DHT22;2886;49.722;8.612;2023-06-22T03:58:19;20.60;99.90
5723;DHT22;2886;49.722;8.612;2023-06-22T04:00:51;20.40;99.90
5723;DHT22;2886;49.722;8.612;2023-06-22T04:03:17;20.30;99.90
5723;DHT22;2886;49.722;8.612;2023-06-22T04:05:47;20.20;99.90
5723;DHT22;2886;49.722;8.612;2023-06-22T04:08:14;20.30;99.90
5723;DHT22;2886;49.722;8.612;2023-06-22T04:10:40;20.40;99.90
5723;DHT22;2886;49.722;8.612;2023-06-22T04:13:06;20.50;99.90
5723;DHT22;2886;49.722;8.612;2023-06-22T04:15:32;20.60;99.90
5723;DHT22;2886;49.722;8.612;2023-06-22T04:17:58;20.70;99.90
5723;DHT22;2886;49.722;8.612;2023-06-22T04:20:24;20.80;99.90
5723;DHT22;2886;49.722;8.612;2023-06-22T04:22:53;20.90;99.90
5723;DHT22;2886;49.722;8.612;2023-06-22T04:25:19;20.90;99.90
5723;DHT22;2886;49.722;8.612;2023-06-22T04:27:45;21.00;99.90
5723;DHT22;2886;49.722;8.612;2023-06-22T04:30:11;21.10;99.90
5723;DHT22;2886;49.722;8.612;2023-06-22T04:32:40;21.10;99.90
5723;DHT22;2886;49.722;8.612;2023-06-22T04:35:06;21.10;99.90
5723;DHT22;2886;49.722;8.612;2023-06-22T04:37:33;21.20;99.90
5723;DHT22;2886;49.722;8.612;2023-06-22T04:39:59;21.20;99.90
5723;DHT22;2886;49.722;8.612;2023-06-22T04:42:27;21.20;99.90
5723;DHT22;2886;49.722;8.612;2023-06-22T04:44:53;21.30;99.90
5723;DHT22;2886;49.722;8.612;2023-06-22T04:47:19;21.30;99.90
5723;DHT22;2886;49.722;8.612;2023-06-22T04:49:45;21.30;99.90
5723;DHT22;2886;49.722;8.612;2023-06-22T04:52:11;21.30;99.90
5723;DHT22;2886;49.722;8.612;2023-06-22T04:54:38;21.20;99.90
5723;DHT22;2886;49.722;8.612;2023-06-22T04:59:31;21.30;99.90
5723;DHT22;2886;49.722;8.612;2023-06-22T05:01:58;21.40;99.90
5723;DHT22;2886;49.722;8.612;2023-06-22T05:04:25;21.50;99.90
5723;DHT22;2886;49.722;8.612;2023-06-22T05:06:51;21.60;99.90
5723;DHT22;2886;49.722;8.612;2023-06-22T05:09:17;22.00;99.90
5723;DHT22;2886;49.722;8.612;2023-06-22T05:11:44;22.20;99.90
5723;DHT22;2886;49.722;8.612;2023-06-22T05:14:10;22.10;99.90
5723;DHT22;2886;49.722;8.612;2023-06-22T05:16:36;22.00;99.90
5723;DHT22;2886;49.722;8.612;2023-06-22T05:19:02;21.90;99.90
5723;DHT22;2886;49.722;8.612;2023-06-22T05:21:30;21.90;99.90
5723;DHT22;2886;49.722;8.612;2023-06-22T05:23:56;22.10;99.90
5723;DHT22;2886;49.722;8.612;2023-06-22T05:26:26;22.30;99.90
5723;DHT22;2886;49.722;8.612;2023-06-22T05:28:52;23.00;99.90
5723;DHT22;2886;49.722;8.612;2023-06-22T05:31:18;23.50;99.90
5723;DHT22;2886;49.722;8.612;2023-06-22T05:33:48;23.80;99.90
5723;DHT22;2886;49.722;8.612;2023-06-22T05:36:15;23.90;99.90
5723;DHT22;2886;49.722;8.612;2023-06-22T05:38:41;24.10;99.90
5723;DHT22;2886;49.722;8.612;2023-06-22T05:41:07;24.10;99.90
5723;DHT22;2886;49.722;8.612;2023-06-22T05:43:33;24.00;99.90
5723;DHT22;2886;49.722;8.612;2023-06-22T05:46:00;24.40;99.90
5723;DHT22;2886;49.722;8.612;2023-06-22T05:48:26;24.80;99.90
5723;DHT22;2886;49.722;8.612;2023-06-22T05:50:52;25.00;99.90
5723;DHT22;2886;49.722;8.612;2023-06-22T05:53:17;25.60;99.90
5723;DHT22;2886;49.722;8.612;2023-06-22T05:55:43;25.90;99.90
5723;DHT22;2886;49.722;8.612;2023-06-22T05:58:09;26.30;99.90
5723;DHT22;2886;49.722;8.612;2023-06-22T06:00:35;26.30;99.90
5723;DHT22;2886;49.722;8.612;2023-06-22T06:03:01;26.60;99.80
5723;DHT22;2886;49.722;8.612;2023-06-22T06:05:33;26.80;99.20
5723;DHT22;2886;49.722;8.612;2023-06-22T06:08:00;27.20;98.50
5723;DHT22;2886;49.722;8.612;2023-06-22T06:10:26;27.50;96.70
5723;DHT22;2886;49.722;8.612;2023-06-22T06:12:53;27.90;97.00
5723;DHT22;2886;49.722;8.612;2023-06-22T06:15:18;28.70;90.60
5723;DHT22;2886;49.722;8.612;2023-06-22T06:17:51;29.00;81.30
5723;DHT22;2886;49.722;8.612;2023-06-22T06:20:20;29.10;77.90
5723;DHT22;2886;49.722;8.612;2023-06-22T06:22:46;29.10;78.10
5723;DHT22;2886;49.722;8.612;2023-06-22T06:25:12;29.30;71.00
5723;DHT22;2886;49.722;8.612;2023-06-22T06:27:42;29.40;72.90
5723;DHT22;2886;49.722;8.612;2023-06-22T06:30:10;30.00;67.30
5723;DHT22;2886;49.722;8.612;2023-06-22T06:32:36;29.90;66.20
5723;DHT22;2886;49.722;8.612;2023-06-22T06:35:01;29.80;66.50
5723;DHT22;2886;49.722;8.612;2023-06-22T06:37:27;29.50;67.40
5723;DHT22;2886;49.722;8.612;2023-06-22T06:39:53;29.90;67.90
5723;DHT22;2886;49.722;8.612;2023-06-22T06:42:19;30.50;64.80
5723;DHT22;2886;49.722;8.612;2023-06-22T06:44:45;30.60;60.60
5723;DHT22;2886;49.722;8.612;2023-06-22T06:47:11;29.70;64.20
5723;DHT22;2886;49.722;8.612;2023-06-22T06:49:36;29.50;65.50
5723;DHT22;2886;49.722;8.612;2023-06-22T06:52:02;29.70;64.80
5723;DHT22;2886;49.722;8.612;2023-06-22T06:54:28;30.20;64.00
5723;DHT22;2886;49.722;8.612;2023-06-22T06:56:53;30.80;57.50
5723;DHT22;2886;49.722;8.612;2023-06-22T06:59:19;29.50;60.70
5723;DHT22;2886;49.722;8.612;2023-06-22T07:01:44;29.10;64.50
5723;DHT22;2886;49.722;8.612;2023-06-22T07:04:10;29.50;61.80
5723;DHT22;2886;49.722;8.612;2023-06-22T07:06:36;29.60;60.80
5723;DHT22;2886;49.722;8.612;2023-06-22T07:09:03;29.30;62.50
5723;DHT22;2886;49.722;8.612;2023-06-22T07:11:29;28.80;65.40
5723;DHT22;2886;49.722;8.612;2023-06-22T07:13:54;28.40;68.70
5723;DHT22;2886;49.722;8.612;2023-06-22T07:16:20;28.00;71.00
5723;DHT22;2886;49.722;8.612;2023-06-22T07:18:46;27.60;75.00
5723;DHT22;2886;49.722;8.612;2023-06-22T07:21:11;27.50;76.90
5723;DHT22;2886;49.722;8.612;2023-06-22T07:23:37;27.20;77.80
5723;DHT22;2886;49.722;8.612;2023-06-22T07:26:02;27.10;78.50
5723;DHT22;2886;49.722;8.612;2023-06-22T07:28:28;27.20;79.00
5723;DHT22;2886;49.722;8.612;2023-06-22T07:30:57;27.10;80.20
5723;DHT22;2886;49.722;8.612;2023-06-22T07:33:22;27.00;81.60
5723;DHT22;2886;49.722;8.612;2023-06-22T07:35:48;26.90;79.90
5723;DHT22;2886;49.722;8.612;2023-06-22T07:38:14;27.00;80.30
5723;DHT22;2886;49.722;8.612;2023-06-22T07:40:41;27.20;79.90
5723;DHT22;2886;49.722;8.612;2023-06-22T07:43:07;27.30;80.30
5723;DHT22;2886;49.722;8.612;2023-06-22T07:45:32;27.50;77.40
5723;DHT22;2886;49.722;8.612;2023-06-22T07:48:00;27.60;76.80
5723;DHT22;2886;49.722;8.612;2023-06-22T07:50:26;27.70;75.00
5723;DHT22;2886;49.722;8.612;2023-06-22T07:52:52;27.80;74.70
5723;DHT22;2886;49.722;8.612;2023-06-22T07:55:18;28.00;72.10
5723;DHT22;2886;49.722;8.612;2023-06-22T07:57:44;28.10;69.10
5723;DHT22;2886;49.722;8.612;2023-06-22T08:00:10;28.20;69.70
5723;DHT22;2886;49.722;8.612;2023-06-22T08:02:41;28.30;69.20
5723;DHT22;2886;49.722;8.612;2023-06-22T08:05:08;28.50;69.50
5723;DHT22;2886;49.722;8.612;2023-06-22T08:07:35;28.60;66.10
5723;DHT22;2886;49.722;8.612;2023-06-22T08:10:02;28.80;65.60
5723;DHT22;2886;49.722;8.612;2023-06-22T08:12:28;28.90;64.10
5723;DHT22;2886;49.722;8.612;2023-06-22T08:14:53;28.90;62.50
5723;DHT22;2886;49.722;8.612;2023-06-22T08:17:19;29.00;63.90
5723;DHT22;2886;49.722;8.612;2023-06-22T08:19:44;29.00;61.70
5723;DHT22;2886;49.722;8.612;2023-06-22T08:22:10;29.00;61.10
5723;DHT22;2886;49.722;8.612;2023-06-22T08:24:35;29.10;60.40
5723;DHT22;2886;49.722;8.612;2023-06-22T08:27:01;29.20;61.30
5723;DHT22;2886;49.722;8.612;2023-06-22T08:29:27;29.30;58.80
5723;DHT22;2886;49.722;8.612;2023-06-22T08:31:52;29.20;60.20
5723;DHT22;2886;49.722;8.612;2023-06-22T08:34:18;29.20;60.50
5723;DHT22;2886;49.722;8.612;2023-06-22T08:36:47;29.20;60.80
5723;DHT22;2886;49.722;8.612;2023-06-22T08:39:17;29.40;59.60
5723;DHT22;2886;49.722;8.612;2023-06-22T08:41:43;29.60;58.20
5723;DHT22;2886;49.722;8.612;2023-06-22T08:44:08;29.70;56.70
5723;DHT22;2886;49.722;8.612;2023-06-22T08:46:34;29.70;54.90
5723;DHT22;2886;49.722;8.612;2023-06-22T08:49:00;29.60;56.30
5723;DHT22;2886;49.722;8.612;2023-06-22T08:51:26;29.80;57.00
5723;DHT22;2886;49.722;8.612;2023-06-22T08:53:52;29.90;56.50
5723;DHT22;2886;49.722;8.612;2023-06-22T08:56:18;29.80;55.20
5723;DHT22;2886;49.722;8.612;2023-06-22T08:58:44;29.80;57.50
5723;DHT22;2886;49.722;8.612;2023-06-22T09:01:09;29.80;56.60
5723;DHT22;2886;49.722;8.612;2023-06-22T09:03:35;30.00;56.80
5723;DHT22;2886;49.722;8.612;2023-06-22T09:06:03;30.20;54.90
5723;DHT22;2886;49.722;8.612;2023-06-22T09:08:28;30.30;53.80
5723;DHT22;2886;49.722;8.612;2023-06-22T09:10:54;30.40;51.50
5723;DHT22;2886;49.722;8.612;2023-06-22T09:13:20;30.70;52.40
5723;DHT22;2886;49.722;8.612;2023-06-22T09:15:47;31.10;50.00
5723;DHT22;2886;49.722;8.612;2023-06-22T09:18:14;31.20;49.90
5723;DHT22;2886;49.722;8.612;2023-06-22T09:20:39;31.40;49.60
5723;DHT22;2886;49.722;8.612;2023-06-22T09:23:05;31.70;48.20
5723;DHT22;2886;49.722;8.612;2023-06-22T09:25:31;31.80;47.90
5723;DHT22;2886;49.722;8.612;2023-06-22T09:27:56;31.60;46.40
5723;DHT22;2886;49.722;8.612;2023-06-22T09:30:22;31.30;47.50
5723;DHT22;2886;49.722;8.612;2023-06-22T09:32:48;31.30;47.50
5723;DHT22;2886;49.722;8.612;2023-06-22T09:35:13;31.40;48.10
5723;DHT22;2886;49.722;8.612;2023-06-22T09:37:40;31.60;47.60
5723;DHT22;2886;49.722;8.612;2023-06-22T09:40:07;31.80;47.20
5723;DHT22;2886;49.722;8.612;2023-06-22T09:42:38;32.00;46.50
5723;DHT22;2886;49.722;8.612;2023-06-22T09:45:04;32.10;46.70
5723;DHT22;2886;49.722;8.612;2023-06-22T09:47:29;32.20;46.20
5723;DHT22;2886;49.722;8.612;2023-06-22T09:49:55;32.20;46.50
5723;DHT22;2886;49.722;8.612;2023-06-22T09:52:21;32.30;46.00
5723;DHT22;2886;49.722;8.612;2023-06-22T09:54:47;32.40;45.30
5723;DHT22;2886;49.722;8.612;2023-06-22T09:57:12;32.20;45.20
5723;DHT22;2886;49.722;8.612;2023-06-22T09:59:38;32.20;46.10
5723;DHT22;2886;49.722;8.612;2023-06-22T10:02:06;32.30;45.40
5723;DHT22;2886;49.722;8.612;2023-06-22T10:04:32;32.20;45.20
5723;DHT22;2886;49.722;8.612;2023-06-22T10:06:57;32.20;46.00
5723;DHT22;2886;49.722;8.612;2023-06-22T10:09:23;32.20;45.60
5723;DHT22;2886;49.722;8.612;2023-06-22T10:11:48;32.30;44.70
5723;DHT22;2886;49.722;8.612;2023-06-22T10:14:14;32.10;46.10
5723;DHT22;2886;49.722;8.612;2023-06-22T10:16:39;32.20;45.80
5723;DHT22;2886;49.722;8.612;2023-06-22T10:19:06;32.40;46.20
5723;DHT22;2886;49.722;8.612;2023-06-22T10:21:32;32.40;46.10
5723;DHT22;2886;49.722;8.612;2023-06-22T10:23:58;32.60;46.30
5723;DHT22;2886;49.722;8.612;2023-06-22T10:26:24;32.50;45.20
5723;DHT22;2886;49.722;8.612;2023-06-22T10:28:51;32.60;45.90
5723;DHT22;2886;49.722;8.612;2023-06-22T10:31:17;32.60;45.40
5723;DHT22;2886;49.722;8.612;2023-06-22T10:33:42;32.60;45.10
5723;DHT22;2886;49.722;8.612;2023-06-22T10:36:10;32.70;45.10
5723;DHT22;2886;49.722;8.612;2023-06-22T10:38:36;32.90;44.20
5723;DHT22;2886;49.722;8.612;2023-06-22T10:41:01;33.30;44.30
5723;DHT22;2886;49.722;8.612;2023-06-22T10:43:27;33.60;42.90
5723;DHT22;2886;49.722;8.612;2023-06-22T10:45:53;33.70;42.60
5723;DHT22;2886;49.722;8.612;2023-06-22T10:48:19;33.80;42.40
5723;DHT22;2886;49.722;8.612;2023-06-22T10:50:44;34.10;42.30
5723;DHT22;2886;49.722;8.612;2023-06-22T10:53:10;34.30;41.90
5723;DHT22;2886;49.722;8.612;2023-06-22T10:55:35;34.30;40.60
5723;DHT22;2886;49.722;8.612;2023-06-22T10:58:01;34.30;40.40
5723;DHT22;2886;49.722;8.612;2023-06-22T11:00:26;33.80;42.00
5723;DHT22;2886;49.722;8.612;2023-06-22T11:02:52;33.80;41.50
5723;DHT22;2886;49.722;8.612;2023-06-22T11:05:18;34.10;41.40
5723;DHT22;2886;49.722;8.612;2023-06-22T11:07:44;33.80;41.10
5723;DHT22;2886;49.722;8.612;2023-06-22T11:10:10;33.70;40.60
5723;DHT22;2886;49.722;8.612;2023-06-22T11:12:35;33.70;40.60
5723;DHT22;2886;49.722;8.612;2023-06-22T11:15:01;33.70;40.60
5723;DHT22;2886;49.722;8.612;2023-06-22T11:17:27;33.80;40.40
5723;DHT22;2886;49.722;8.612;2023-06-22T11:19:53;34.10;39.80
5723;DHT22;2886;49.722;8.612;2023-06-22T11:22:18;34.20;39.00
5723;DHT22;2886;49.722;8.612;2023-06-22T11:24:44;34.10;39.40
5723;DHT22;2886;49.722;8.612;2023-06-22T11:27:09;33.80;40.20
5723;DHT22;2886;49.722;8.612;2023-06-22T11:29:35;33.60;40.90
5723;DHT22;2886;49.722;8.612;2023-06-22T11:32:01;33.70;40.80
5723;DHT22;2886;49.722;8.612;2023-06-22T11:34:26;33.90;40.60
5723;DHT22;2886;49.722;8.612;2023-06-22T11:36:53;34.00;40.00
5723;DHT22;2886;49.722;8.612;2023-06-22T11:39:19;34.20;39.60
5723;DHT22;2886;49.722;8.612;2023-06-22T11:41:45;34.40;39.20
5723;DHT22;2886;49.722;8.612;2023-06-22T11:44:10;34.50;39.40
5723;DHT22;2886;49.722;8.612;2023-06-22T11:46:36;34.70;38.10
5723;DHT22;2886;49.722;8.612;2023-06-22T11:49:02;34.80;38.30
5723;DHT22;2886;49.722;8.612;2023-06-22T11:51:28;35.10;37.40
5723;DHT22;2886;49.722;8.612;2023-06-22T11:53:54;35.00;37.80
5723;DHT22;2886;49.722;8.612;2023-06-22T11:56:19;34.80;37.70
5723;DHT22;2886;49.722;8.612;2023-06-22T11:58:45;34.70;38.10
5723;DHT22;2886;49.722;8.612;2023-06-22T12:01:10;34.50;38.30
5723;DHT22;2886;49.722;8.612;2023-06-22T12:03:40;34.30;38.50
5723;DHT22;2886;49.722;8.612;2023-06-22T12:06:06;34.10;39.80
5723;DHT22;2886;49.722;8.612;2023-06-22T12:08:31;34.00;38.80
5723;DHT22;2886;49.722;8.612;2023-06-22T12:10:57;33.80;39.10
5723;DHT22;2886;49.722;8.612;2023-06-22T12:13:22;33.80;38.70
5723;DHT22;2886;49.722;8.612;2023-06-22T12:15:48;33.80;38.60
5723;DHT22;2886;49.722;8.612;2023-06-22T12:18:14;33.70;38.60
5723;DHT22;2886;49.722;8.612;2023-06-22T12:20:40;34.10;37.40
5723;DHT22;2886;49.722;8.612;2023-06-22T12:23:06;34.40;37.40
5723;DHT22;2886;49.722;8.612;2023-06-22T12:25:31;34.80;36.80
5723;DHT22;2886;49.722;8.612;2023-06-22T12:27:57;35.00;36.20
5723;DHT22;2886;49.722;8.612;2023-06-22T12:30:22;35.10;35.70
5723;DHT22;2886;49.722;8.612;2023-06-22T12:32:48;35.10;35.80
5723;DHT22;2886;49.722;8.612;2023-06-22T12:35:14;35.20;35.20
5723;DHT22;2886;49.722;8.612;2023-06-22T12:37:42;34.90;35.80
5723;DHT22;2886;49.722;8.612;2023-06-22T12:40:08;34.90;36.00
5723;DHT22;2886;49.722;8.612;2023-06-22T12:42:34;34.90;36.50
5723;DHT22;2886;49.722;8.612;2023-06-22T12:44:59;35.20;35.40
5723;DHT22;2886;49.722;8.612;2023-06-22T12:47:25;35.30;35.30
5723;DHT22;2886;49.722;8.612;2023-06-22T12:49:51;35.40;35.30
5723;DHT22;2886;49.722;8.612;2023-06-22T12:52:16;35.70;35.70
5723;DHT22;2886;49.722;8.612;2023-06-22T12:54:42;35.90;34.90
5723;DHT22;2886;49.722;8.612;2023-06-22T12:57:07;35.90;34.90
5723;DHT22;2886;49.722;8.612;2023-06-22T12:59:33;36.10;34.90
5723;DHT22;2886;49.722;8.612;2023-06-22T13:01:58;36.60;34.10
5723;DHT22;2886;49.722;8.612;2023-06-22T13:04:24;37.10;33.40
5723;DHT22;2886;49.722;8.612;2023-06-22T13:06:50;37.30;32.30
5723;DHT22;2886;49.722;8.612;2023-06-22T13:09:17;37.30;32.40
5723;DHT22;2886;49.722;8.612;2023-06-22T13:11:43;37.20;32.30
5723;DHT22;2886;49.722;8.612;2023-06-22T13:14:09;37.20;32.60
5723;DHT22;2886;49.722;8.612;2023-06-22T13:16:34;36.90;32.60
5723;DHT22;2886;49.722;8.612;2023-06-22T13:19:00;36.50;33.50
5723;DHT22;2886;49.722;8.612;2023-06-22T13:21:26;36.40;33.90
5723;DHT22;2886;49.722;8.612;2023-06-22T13:23:51;36.30;33.50
5723;DHT22;2886;49.722;8.612;2023-06-22T13:26:17;36.10;32.90
5723;DHT22;2886;49.722;8.612;2023-06-22T13:28:43;35.90;33.30
5723;DHT22;2886;49.722;8.612;2023-06-22T13:31:08;35.70;34.20
5723;DHT22;2886;49.722;8.612;2023-06-22T13:33:34;35.30;34.70
5723;DHT22;2886;49.722;8.612;2023-06-22T13:35:59;35.20;35.30
5723;DHT22;2886;49.722;8.612;2023-06-22T13:38:25;35.20;35.20
5723;DHT22;2886;49.722;8.612;2023-06-22T13:40:51;35.20;34.80
5723;DHT22;2886;49.722;8.612;2023-06-22T13:43:17;35.20;34.70
5723;DHT22;2886;49.722;8.612;2023-06-22T13:45:42;35.00;34.40
5723;DHT22;2886;49.722;8.612;2023-06-22T13:48:09;34.80;35.00
5723;DHT22;2886;49.722;8.612;2023-06-22T13:50:34;34.70;35.40
5723;DHT22;2886;49.722;8.612;2023-06-22T13:53:00;34.70;35.20
5723;DHT22;2886;49.722;8.612;2023-06-22T13:55:26;34.60;35.70
5723;DHT22;2886;49.722;8.612;2023-06-22T13:57:52;34.70;35.40
5723;DHT22;2886;49.722;8.612;2023-06-22T14:00:18;34.50;35.00
5723;DHT22;2886;49.722;8.612;2023-06-22T14:02:44;34.40;33.90
5723;DHT22;2886;49.722;8.612;2023-06-22T14:05:09;34.40;34.60
5723;DHT22;2886;49.722;8.612;2023-06-22T14:07:36;34.30;34.20
5723;DHT22;2886;49.722;8.612;2023-06-22T14:10:03;34.30;34.60
5723;DHT22;2886;49.722;8.612;2023-06-22T14:12:29;34.30;34.70
5723;DHT22;2886;49.722;8.612;2023-06-22T14:14:54;34.40;33.90
5723;DHT22;2886;49.722;8.612;2023-06-22T14:17:20;34.50;35.00
5723;DHT22;2886;49.722;8.612;2023-06-22T14:19:49;34.50;35.40
5723;DHT22;2886;49.722;8.612;2023-06-22T14:22:17;34.30;35.70
5723;DHT22;2886;49.722;8.612;2023-06-22T14:24:43;34.20;36.40
5723;DHT22;2886;49.722;8.612;2023-06-22T14:27:08;34.30;36.40
5723;DHT22;2886;49.722;8.612;2023-06-22T14:29:35;34.20;36.80
5723;DHT22;2886;49.722;8.612;2023-06-22T14:32:01;34.20;36.80
5723;DHT22;2886;49.722;8.612;2023-06-22T14:34:27;33.90;37.20
5723;DHT22;2886;49.722;8.612;2023-06-22T14:36:53;33.80;37.60
5723;DHT22;2886;49.722;8.612;2023-06-22T14:39:18;33.60;38.30
5723;DHT22;2886;49.722;8.612;2023-06-22T14:41:46;33.40;39.30
5723;DHT22;2886;49.722;8.612;2023-06-22T14:44:11;33.20;39.10
5723;DHT22;2886;49.722;8.612;2023-06-22T14:46:37;33.10;39.40
5723;DHT22;2886;49.722;8.612;2023-06-22T14:49:02;33.00;39.40
5723;DHT22;2886;49.722;8.612;2023-06-22T14:51:28;33.10;39.00
5723;DHT22;2886;49.722;8.612;2023-06-22T14:53:53;33.20;39.10
5723;DHT22;2886;49.722;8.612;2023-06-22T14:56:19;33.40;38.90
5723;DHT22;2886;49.722;8.612;2023-06-22T14:58:45;33.50;38.40
5723;DHT22;2886;49.722;8.612;2023-06-22T15:01:11;33.50;38.10
5723;DHT22;2886;49.722;8.612;2023-06-22T15:03:37;33.50;38.20
5723;DHT22;2886;49.722;8.612;2023-06-22T15:06:03;33.50;38.50
5723;DHT22;2886;49.722;8.612;2023-06-22T15:08:29;33.50;38.40
5723;DHT22;2886;49.722;8.612;2023-06-22T15:10:57;33.30;38.80
5723;DHT22;2886;49.722;8.612;2023-06-22T15:13:23;33.50;39.30
5723;DHT22;2886;49.722;8.612;2023-06-22T15:15:51;33.40;39.30
5723;DHT22;2886;49.722;8.612;2023-06-22T15:18:17;33.50;39.30
5723;DHT22;2886;49.722;8.612;2023-06-22T15:20:43;33.60;39.10
5723;DHT22;2886;49.722;8.612;2023-06-22T15:23:14;33.60;38.50
5723;DHT22;2886;49.722;8.612;2023-06-22T15:25:40;33.60;38.20
5723;DHT22;2886;49.722;8.612;2023-06-22T15:28:06;33.50;38.60
5723;DHT22;2886;49.722;8.612;2023-06-22T15:30:31;33.60;38.30
5723;DHT22;2886;49.722;8.612;2023-06-22T15:32:57;33.60;38.00
5723;DHT22;2886;49.722;8.612;2023-06-22T15:35:23;33.60;38.20
5723;DHT22;2886;49.722;8.612;2023-06-22T15:37:49;33.50;38.60
5723;DHT22;2886;49.722;8.612;2023-06-22T15:40:16;33.50;38.70
5723;DHT22;2886;49.722;8.612;2023-06-22T15:42:42;33.50;39.10
5723;DHT22;2886;49.722;8.612;2023-06-22T15:45:08;33.30;39.20
5723;DHT22;2886;49.722;8.612;2023-06-22T15:47:34;33.20;40.00
5723;DHT22;2886;49.722;8.612;2023-06-22T15:50:00;33.00;40.30
5723;DHT22;2886;49.722;8.612;2023-06-22T15:52:25;32.80;41.10
5723;DHT22;2886;49.722;8.612;2023-06-22T15:54:51;32.70;41.60
5723;DHT22;2886;49.722;8.612;2023-06-22T15:57:19;32.70;42.50
5723;DHT22;2886;49.722;8.612;2023-06-22T15:59:45;32.40;42.40